Time;durP1;ratioP1;P1;durP2;ratioP2;P2;SDS_P1;SDS_P2;PMS_P1;PMS_P2;Temp;Humidity;BMP_temperature;BMP_pressure;BME280_temperature;BME280_humidity;BME280_pressure;Samples;Min_cycle;Max_cycle;Signal;HPM_P1;HPM_P2
2022/07/24 00:00:57;;;;;;;4.13;2.38;;;13.50;99.90;;;;;;5073552;28;20235;-72
2022/07/24 00:03:28;;;;;;;3.53;1.90;;;13.60;99.90;;;;;;5073582;28;20552;-72
2022/07/24 00:06:00;;;;;;;4.47;2.22;;;13.70;99.90;;;;;;5070339;28;20612;-72
2022/07/24 00:08:31;;;;;;;3.45;1.80;;;13.80;99.90;;;;;;5073608;28;20193;-73
2022/07/24 00:11:03;;;;;;;2.08;1.60;;;13.90;99.90;;;;;;5070699;28;20247;-72
2022/07/24 00:13:34;;;;;;;2.60;1.48;;;14.10;99.90;;;;;;5072260;28;20204;-72
2022/07/24 00:16:07;;;;;;;3.33;1.25;;;14.10;99.90;;;;;;5073561;28;20193;-72
2022/07/24 00:18:38;;;;;;;2.30;1.40;;;14.20;99.90;;;;;;5073200;28;20189;-71
2022/07/24 00:21:11;;;;;;;1.88;1.30;;;14.30;99.90;;;;;;5073235;28;20189;-72
2022/07/24 00:23:42;;;;;;;2.55;1.35;;;14.40;99.90;;;;;;5073180;28;20193;-72
2022/07/24 00:26:13;;;;;;;2.28;1.45;;;14.50;99.90;;;;;;5073245;28;20242;-72
2022/07/24 00:28:44;;;;;;;1.58;1.20;;;14.60;99.90;;;;;;5072947;28;20229;-71
2022/07/24 00:31:14;;;;;;;2.33;1.00;;;14.70;99.90;;;;;;5073497;28;20648;-72
2022/07/24 00:33:45;;;;;;;1.63;1.27;;;14.80;99.90;;;;;;5072560;28;20223;-72
2022/07/24 00:36:18;;;;;;;1.20;1.00;;;14.90;99.90;;;;;;5073113;28;20201;-72
2022/07/24 00:38:48;;;;;;;3.10;1.08;;;14.90;99.90;;;;;;5072718;28;20636;-72
2022/07/24 00:41:19;;;;;;;1.10;1.00;;;14.90;99.90;;;;;;5072824;28;20192;-72
2022/07/24 00:44:08;;;;;;;1.27;1.10;;;15.00;99.90;;;;;;5072683;28;20211;-72
2022/07/24 00:46:39;;;;;;;1.77;1.00;;;15.20;99.90;;;;;;5072709;28;20193;-74
2022/07/24 00:49:12;;;;;;;1.35;0.80;;;15.20;99.90;;;;;;5072517;28;20199;-72
2022/07/24 00:51:45;;;;;;;2.33;1.00;;;15.40;99.90;;;;;;5072331;28;20197;-72
2022/07/24 00:54:17;;;;;;;2.22;0.95;;;15.50;99.90;;;;;;5072753;28;20216;-72
2022/07/24 00:56:49;;;;;;;1.05;0.70;;;15.60;99.90;;;;;;5072934;28;20185;-72
2022/07/24 00:59:20;;;;;;;2.45;0.90;;;15.70;99.90;;;;;;5072687;28;20570;-74
2022/07/24 01:01:52;;;;;;;1.15;0.70;;;15.90;99.90;;;;;;5069919;28;20268;-73
2022/07/24 01:04:24;;;;;;;1.98;0.70;;;15.90;99.90;;;;;;5062072;28;20181;-73
2022/07/24 01:06:56;;;;;;;1.63;0.80;;;16.00;99.90;;;;;;5072951;28;20201;-72
2022/07/24 01:09:28;;;;;;;1.92;0.85;;;16.20;99.90;;;;;;5072802;28;20640;-73
2022/07/24 01:11:59;;;;;;;2.35;0.73;;;16.30;99.90;;;;;;5073021;28;20189;-76
2022/07/24 01:14:30;;;;;;;3.20;0.77;;;16.30;99.90;;;;;;5072786;28;20201;-77
2022/07/24 01:17:01;;;;;;;2.25;0.93;;;16.40;99.90;;;;;;5072636;28;20189;-72
2022/07/24 01:19:32;;;;;;;1.20;0.70;;;16.50;99.90;;;;;;5072714;28;20196;-72
2022/07/24 01:22:04;;;;;;;1.10;0.70;;;16.50;99.90;;;;;;5072693;28;20196;-73
2022/07/24 01:24:35;;;;;;;0.93;0.65;;;16.60;99.90;;;;;;5072519;28;20678;-72
2022/07/24 01:27:06;;;;;;;0.90;0.60;;;16.60;99.90;;;;;;5072656;28;20204;-80
2022/07/24 01:29:37;;;;;;;1.73;1.13;;;16.70;99.90;;;;;;5072253;28;20232;-72
2022/07/24 01:32:08;;;;;;;2.92;0.70;;;16.80;99.90;;;;;;5072447;28;20189;-72
2022/07/24 01:34:38;;;;;;;1.52;0.70;;;16.90;99.90;;;;;;5072131;28;20585;-78
2022/07/24 01:37:11;;;;;;;1.55;0.65;;;16.90;99.90;;;;;;5072486;28;20189;-72
2022/07/24 01:39:42;;;;;;;1.75;0.70;;;17.00;99.90;;;;;;5072636;28;20200;-78
2022/07/24 01:42:12;;;;;;;1.15;0.55;;;17.00;99.90;;;;;;5072541;28;20196;-72
2022/07/24 01:44:43;;;;;;;1.38;0.60;;;17.10;99.90;;;;;;5072350;28;20558;-72
2022/07/24 01:47:14;;;;;;;0.88;0.55;;;17.20;99.90;;;;;;5072428;28;20570;-72
2022/07/24 01:49:45;;;;;;;1.52;0.60;;;17.30;99.90;;;;;;5072513;28;20535;-72
2022/07/24 01:52:17;;;;;;;0.88;0.50;;;17.40;99.90;;;;;;5072306;28;20189;-73
2022/07/24 01:54:48;;;;;;;1.77;0.50;;;17.40;99.90;;;;;;5072067;28;20211;-76
2022/07/24 01:57:18;;;;;;;0.60;0.60;;;17.50;99.90;;;;;;5077998;28;20632;-78
2022/07/24 01:59:49;;;;;;;2.75;0.80;;;17.50;99.90;;;;;;5079464;28;20238;-79
2022/07/24 02:02:20;;;;;;;2.40;0.60;;;17.50;99.90;;;;;;5071992;28;20189;-79
2022/07/24 02:04:50;;;;;;;2.33;0.70;;;17.60;99.90;;;;;;5072316;28;20193;-79
2022/07/24 02:07:23;;;;;;;2.47;0.60;;;17.70;99.90;;;;;;5072346;28;20189;-79
2022/07/24 02:09:53;;;;;;;2.72;1.13;;;17.80;99.90;;;;;;5072292;28;20694;-78
2022/07/24 02:12:24;;;;;;;8.68;5.28;;;17.80;99.90;;;;;;5071831;28;20231;-80
2022/07/24 02:14:55;;;;;;;2.78;1.45;;;17.80;99.90;;;;;;5071529;28;20234;-77
2022/07/24 02:17:25;;;;;;;2.35;0.70;;;17.80;99.90;;;;;;5072063;28;20197;-79
2022/07/24 02:19:56;;;;;;;1.70;1.50;;;17.80;99.90;;;;;;5071865;28;20203;-77
2022/07/24 02:22:28;;;;;;;3.70;2.17;;;17.80;99.90;;;;;;5071805;28;20197;-73
2022/07/24 02:24:59;;;;;;;2.97;1.40;;;17.90;99.90;;;;;;5071157;28;20197;-78
2022/07/24 02:27:30;;;;;;;2.47;1.20;;;18.00;99.90;;;;;;5072013;28;20189;-79
2022/07/24 02:30:00;;;;;;;1.52;1.25;;;18.10;99.90;;;;;;5071791;28;20236;-80
2022/07/24 02:32:31;;;;;;;2.40;0.80;;;18.20;99.90;;;;;;5071552;28;20185;-76
2022/07/24 02:35:02;;;;;;;0.77;0.50;;;18.20;99.90;;;;;;5071303;28;20560;-78
2022/07/24 02:37:35;;;;;;;0.68;0.50;;;18.20;99.90;;;;;;5073648;28;20546;-79
2022/07/24 02:40:06;;;;;;;1.80;0.70;;;18.00;99.90;;;;;;5075525;28;20200;-80
2022/07/24 02:42:36;;;;;;;1.58;0.60;;;18.10;99.90;;;;;;5075304;28;20189;-80
2022/07/24 02:45:08;;;;;;;2.88;0.98;;;18.20;99.90;;;;;;5075453;28;20262;-78
2022/07/24 02:47:47;;;;;;;1.17;0.57;;;18.30;99.90;;;;;;5075118;28;20195;-79
2022/07/24 02:50:18;;;;;;;1.20;0.52;;;18.30;99.90;;;;;;5074441;28;20200;-79
2022/07/24 02:52:51;;;;;;;0.93;0.50;;;18.30;99.90;;;;;;5074982;28;20189;-79
2022/07/24 02:55:22;;;;;;;0.65;0.43;;;18.40;99.90;;;;;;5075209;28;20189;-79
2022/07/24 02:57:52;;;;;;;0.90;0.60;;;18.50;99.90;;;;;;5075067;28;20193;-80
2022/07/24 03:00:23;;;;;;;0.93;0.47;;;18.50;99.90;;;;;;5075142;28;20185;-79
2022/07/24 03:02:54;;;;;;;1.48;0.47;;;18.40;99.90;;;;;;5075086;28;20185;-79
2022/07/24 03:05:25;;;;;;;0.65;0.40;;;18.30;99.90;;;;;;5074653;28;20185;-79
2022/07/24 03:07:57;;;;;;;2.13;0.60;;;18.30;99.90;;;;;;5055076;28;20189;-79
2022/07/24 03:10:28;;;;;;;1.83;0.30;;;18.10;99.90;;;;;;5054992;28;20602;-79
2022/07/24 03:12:58;;;;;;;1.90;0.63;;;17.80;99.90;;;;;;5073083;28;20213;-77
2022/07/24 03:15:29;;;;;;;1.65;0.47;;;17.80;99.90;;;;;;5074934;28;20196;-79
2022/07/24 03:18:00;;;;;;;2.97;0.52;;;17.80;99.90;;;;;;5073187;28;20193;-80
2022/07/24 03:20:32;;;;;;;0.40;0.30;;;18.00;99.90;;;;;;5074832;28;20197;-73
2022/07/24 03:23:04;;;;;;;2.08;0.60;;;18.00;99.90;;;;;;5064626;28;20197;-80
2022/07/24 03:25:35;;;;;;;2.58;0.30;;;18.10;99.90;;;;;;5068600;28;20192;-80
2022/07/24 03:28:06;;;;;;;0.93;0.30;;;18.30;99.90;;;;;;5074473;28;20193;-79
2022/07/24 03:30:37;;;;;;;2.53;0.50;;;18.30;99.90;;;;;;5074269;28;20695;-78
2022/07/24 03:33:07;;;;;;;2.05;0.40;;;18.40;99.90;;;;;;5054455;28;20221;-79
2022/07/24 03:35:38;;;;;;;1.48;0.68;;;18.40;99.90;;;;;;5073659;28;20362;-80
2022/07/24 03:38:10;;;;;;;2.85;0.73;;;18.40;99.90;;;;;;5074510;28;20532;-77
2022/07/24 03:40:41;;;;;;;1.15;0.60;;;18.40;99.90;;;;;;5074258;28;20197;-79
2022/07/24 03:43:11;;;;;;;2.40;0.60;;;18.60;99.90;;;;;;5074412;28;20204;-79
2022/07/24 03:45:43;;;;;;;1.58;0.60;;;18.60;99.90;;;;;;5074045;28;20199;-77
2022/07/24 03:48:13;;;;;;;1.05;0.60;;;18.60;99.90;;;;;;5074319;28;20203;-79
2022/07/24 03:50:44;;;;;;;2.58;0.75;;;18.80;99.90;;;;;;5074184;28;20189;-79
2022/07/24 03:53:16;;;;;;;1.50;0.68;;;18.70;99.90;;;;;;5073967;28;20617;-78
2022/07/24 03:55:47;;;;;;;1.90;0.80;;;18.80;99.90;;;;;;5073628;28;20192;-78
2022/07/24 03:58:18;;;;;;;1.75;0.70;;;18.80;99.90;;;;;;5071355;28;20212;-72
2022/07/24 04:00:48;;;;;;;3.72;0.85;;;18.80;99.90;;;;;;5074103;28;20231;-71
2022/07/24 04:03:19;;;;;;;2.00;0.75;;;18.80;99.90;;;;;;5073377;28;20193;-76
2022/07/24 04:05:50;;;;;;;1.38;0.68;;;18.90;99.90;;;;;;5073938;28;20189;-71
2022/07/24 04:08:25;;;;;;;1.15;0.65;;;19.00;99.90;;;;;;5073576;28;20192;-79
2022/07/24 04:10:56;;;;;;;2.42;0.80;;;18.90;99.90;;;;;;5073975;28;20196;-72
2022/07/24 04:13:28;;;;;;;2.55;0.82;;;18.80;99.90;;;;;;5073263;28;20217;-72
2022/07/24 04:16:02;;;;;;;1.45;0.60;;;18.80;99.90;;;;;;5073670;28;20197;-72
2022/07/24 04:18:32;;;;;;;2.17;0.73;;;18.70;99.90;;;;;;5073659;28;20195;-72
2022/07/24 04:21:03;;;;;;;2.22;0.50;;;18.80;99.90;;;;;;5073342;28;20189;-74
2022/07/24 04:23:36;;;;;;;1.65;0.80;;;18.80;99.90;;;;;;5072965;28;20640;-72
2022/07/24 04:26:07;;;;;;;1.98;0.65;;;18.90;99.90;;;;;;5073132;28;20701;-72
2022/07/24 04:28:38;;;;;;;1.40;0.80;;;18.90;99.90;;;;;;5073226;28;20197;-72
2022/07/24 04:31:08;;;;;;;1.52;0.80;;;18.90;99.90;;;;;;5069505;28;20189;-72
2022/07/24 04:33:39;;;;;;;1.20;0.65;;;19.00;99.90;;;;;;5073058;28;20213;-73
2022/07/24 04:36:10;;;;;;;2.70;0.70;;;19.00;99.90;;;;;;5070135;28;20603;-72
2022/07/24 04:38:43;;;;;;;1.00;0.65;;;19.10;99.90;;;;;;5073248;28;20242;-79
2022/07/24 04:41:14;;;;;;;1.10;0.70;;;19.00;99.90;;;;;;5072998;28;20188;-78
2022/07/24 04:43:45;;;;;;;2.38;1.00;;;19.00;99.90;;;;;;5053313;28;20319;-79
2022/07/24 04:46:15;;;;;;;0.73;0.50;;;18.90;99.90;;;;;;5053189;28;20197;-80
2022/07/24 04:48:46;;;;;;;1.55;0.57;;;18.80;99.90;;;;;;5053208;28;20255;-80
2022/07/24 04:51:17;;;;;;;0.80;0.50;;;18.80;99.90;;;;;;5053019;28;20267;-80
2022/07/24 04:53:52;;;;;;;0.85;0.50;;;18.50;99.90;;;;;;5052655;28;20221;-80
2022/07/24 04:56:23;;;;;;;3.20;0.80;;;18.30;99.90;;;;;;5064172;28;20231;-79
2022/07/24 04:58:53;;;;;;;3.28;0.70;;;18.20;99.90;;;;;;5072947;28;20192;-79
2022/07/24 05:01:24;;;;;;;1.58;0.73;;;18.10;99.90;;;;;;5072690;28;20193;-80
2022/07/24 05:03:56;;;;;;;1.52;0.65;;;17.90;99.90;;;;;;5072972;28;20201;-80
2022/07/24 05:06:27;;;;;;;2.35;0.50;;;17.90;99.90;;;;;;5072952;28;20193;-79
2022/07/24 05:08:59;;;;;;;1.85;0.80;;;17.80;99.90;;;;;;5072710;28;20205;-78
2022/07/24 05:11:30;;;;;;;2.67;0.70;;;17.80;99.90;;;;;;5072392;28;20578;-77
2022/07/24 05:14:01;;;;;;;1.83;0.90;;;17.80;99.90;;;;;;5072713;28;20570;-72
2022/07/24 05:16:31;;;;;;;1.23;0.70;;;17.90;99.90;;;;;;5072856;28;20196;-72
2022/07/24 05:19:02;;;;;;;2.00;0.68;;;17.90;99.90;;;;;;5072812;28;20271;-72
2022/07/24 05:21:33;;;;;;;1.35;0.63;;;18.00;99.90;;;;;;5072176;28;20189;-72
2022/07/24 05:24:05;;;;;;;1.48;0.57;;;18.10;99.90;;;;;;5072729;28;20196;-72
2022/07/24 05:26:36;;;;;;;2.00;0.80;;;18.20;99.90;;;;;;5072142;28;20197;-72
2022/07/24 05:29:08;;;;;;;1.20;0.73;;;18.20;99.90;;;;;;5072331;28;20715;-74
2022/07/24 05:31:38;;;;;;;3.65;0.82;;;18.20;99.90;;;;;;5072643;28;20189;-71
2022/07/24 05:34:09;;;;;;;1.33;0.70;;;18.20;99.90;;;;;;5072103;28;20228;-75
2022/07/24 05:36:40;;;;;;;2.60;0.90;;;18.30;99.90;;;;;;5072301;28;20200;-78
2022/07/24 05:39:13;;;;;;;2.33;0.80;;;18.20;99.90;;;;;;5072597;28;20185;-72
2022/07/24 05:41:43;;;;;;;2.33;0.80;;;18.20;99.90;;;;;;5072426;28;20192;-77
2022/07/24 05:44:14;;;;;;;2.55;0.77;;;18.10;99.90;;;;;;5072322;28;20201;-76
2022/07/24 05:46:45;;;;;;;1.60;0.70;;;18.00;99.90;;;;;;5072514;28;20196;-72
2022/07/24 05:49:15;;;;;;;2.63;0.75;;;17.90;99.90;;;;;;5072456;28;20197;-75
2022/07/24 05:51:49;;;;;;;3.60;0.93;;;17.80;99.90;;;;;;5072235;28;20571;-77
2022/07/24 05:54:21;;;;;;;3.20;1.30;;;17.80;99.90;;;;;;5072251;28;20212;-73
2022/07/24 05:56:52;;;;;;;4.03;1.45;;;17.70;99.90;;;;;;5072180;28;20644;-73
2022/07/24 05:59:23;;;;;;;2.17;0.93;;;17.70;99.90;;;;;;5072331;28;20198;-76
2022/07/24 06:01:54;;;;;;;3.45;0.80;;;17.70;99.90;;;;;;5072316;28;20200;-76
2022/07/24 06:04:24;;;;;;;2.75;1.00;;;17.50;99.90;;;;;;5072339;28;20201;-73
2022/07/24 06:06:55;;;;;;;2.83;0.80;;;17.50;99.90;;;;;;5071971;28;20185;-72
2022/07/24 06:09:27;;;;;;;3.72;0.90;;;17.40;99.90;;;;;;5072103;28;20196;-74
2022/07/24 06:11:58;;;;;;;3.47;0.70;;;17.40;99.90;;;;;;5072880;28;20188;-73
2022/07/24 06:14:29;;;;;;;2.03;0.80;;;17.30;99.90;;;;;;5075934;28;20217;-73
2022/07/24 06:16:59;;;;;;;4.80;0.70;;;17.30;99.90;;;;;;5076015;28;20193;-72
2022/07/24 06:19:30;;;;;;;3.40;0.70;;;17.20;99.90;;;;;;5075500;28;20200;-72
2022/07/24 06:22:01;;;;;;;2.88;0.80;;;17.20;99.90;;;;;;5072272;28;20196;-71
2022/07/24 06:24:36;;;;;;;2.08;0.70;;;17.10;99.90;;;;;;5073464;28;20185;-72
2022/07/24 06:27:07;;;;;;;2.20;1.00;;;17.00;99.90;;;;;;5075289;28;20193;-74
2022/07/24 06:29:37;;;;;;;2.83;0.80;;;17.10;99.90;;;;;;5075194;28;20730;-77
2022/07/24 06:32:08;;;;;;;6.75;0.90;;;17.00;99.90;;;;;;5075378;28;20197;-79
2022/07/24 06:34:39;;;;;;;3.95;1.50;;;16.90;99.90;;;;;;5074950;28;20656;-79
2022/07/24 06:37:10;;;;;;;4.40;1.60;;;16.90;99.90;;;;;;5075109;28;20181;-78
2022/07/24 06:39:42;;;;;;;5.45;1.73;;;16.80;99.90;;;;;;5075494;28;20196;-76
2022/07/24 06:42:13;;;;;;;3.53;1.30;;;16.80;99.90;;;;;;5075444;28;20679;-78
2022/07/24 06:44:44;;;;;;;4.88;1.20;;;16.80;99.90;;;;;;5075270;28;20193;-78
2022/07/24 06:47:14;;;;;;;9.02;1.00;;;16.70;99.90;;;;;;5075224;28;20196;-79
2022/07/24 06:49:45;;;;;;;4.28;1.00;;;16.60;99.90;;;;;;5074519;28;20246;-77
2022/07/24 06:52:15;;;;;;;4.05;0.90;;;16.60;99.90;;;;;;5075117;28;20189;-79
2022/07/24 06:54:48;;;;;;;4.40;0.82;;;16.50;99.90;;;;;;5075163;28;20216;-78
2022/07/24 06:57:19;;;;;;;3.00;1.08;;;16.40;99.90;;;;;;5075082;28;20200;-78
2022/07/24 06:59:52;;;;;;;4.78;1.30;;;16.30;99.90;;;;;;5074996;28;20622;-78
2022/07/24 07:02:23;;;;;;;1.67;0.90;;;16.30;99.90;;;;;;5074826;28;20181;-79
2022/07/24 07:04:54;;;;;;;2.40;1.13;;;16.20;99.90;;;;;;5074878;28;20203;-79
2022/07/24 07:07:24;;;;;;;3.22;1.05;;;16.10;99.90;;;;;;5074895;28;20200;-79
2022/07/24 07:09:57;;;;;;;2.00;0.85;;;16.00;99.90;;;;;;5075141;28;20197;-72
2022/07/24 07:12:28;;;;;;;2.45;1.20;;;15.90;99.90;;;;;;5074736;28;20185;-72
2022/07/24 07:14:59;;;;;;;3.75;1.20;;;15.80;99.90;;;;;;5070610;28;20679;-72
2022/07/24 07:17:29;;;;;;;3.95;1.30;;;15.80;99.90;;;;;;5074493;28;20203;-78
2022/07/24 07:20:00;;;;;;;3.88;1.30;;;15.70;99.90;;;;;;5074332;28;20193;-79
2022/07/24 07:22:31;;;;;;;5.15;1.52;;;15.60;99.90;;;;;;5074196;28;20185;-72
2022/07/24 07:25:03;;;;;;;7.15;1.65;;;15.50;99.90;;;;;;5074524;28;20192;-72
2022/07/24 07:27:35;;;;;;;4.90;2.38;;;15.50;99.90;;;;;;5074625;28;20583;-72
2022/07/24 07:30:06;;;;;;;5.10;2.30;;;15.40;99.90;;;;;;5074470;28;20235;-73
2022/07/24 07:32:36;;;;;;;5.15;1.92;;;15.30;99.90;;;;;;5074363;28;20201;-72
2022/07/24 07:35:08;;;;;;;6.30;2.30;;;15.20;99.90;;;;;;5074039;28;20240;-72
2022/07/24 07:37:38;;;;;;;3.60;1.90;;;15.20;99.90;;;;;;5074171;28;20201;-72
2022/07/24 07:40:12;;;;;;;3.92;1.60;;;15.10;99.90;;;;;;5074239;28;20193;-73
2022/07/24 07:42:43;;;;;;;4.97;1.70;;;15.10;99.90;;;;;;5074367;28;20193;-72
2022/07/24 07:45:13;;;;;;;6.50;1.90;;;15.00;99.90;;;;;;5074009;28;20192;-74
2022/07/24 07:47:44;;;;;;;4.05;1.55;;;14.90;99.90;;;;;;5073936;28;20189;-72
2022/07/24 07:50:15;;;;;;;3.60;1.80;;;14.90;99.90;;;;;;5073670;28;20234;-72
2022/07/24 07:52:45;;;;;;;4.88;1.77;;;14.80;99.90;;;;;;5073988;28;20267;-72
2022/07/24 07:55:18;;;;;;;7.07;2.28;;;14.80;99.90;;;;;;5073691;28;20367;-73
2022/07/24 07:57:49;;;;;;;3.63;2.22;;;14.70;99.90;;;;;;5073861;28;20189;-73
2022/07/24 08:00:20;;;;;;;4.45;2.33;;;14.60;99.90;;;;;;5073728;28;20201;-72
2022/07/24 08:02:51;;;;;;;5.90;2.50;;;14.50;99.90;;;;;;5073291;28;20227;-73
2022/07/24 08:05:21;;;;;;;4.10;2.67;;;14.50;99.90;;;;;;5073857;28;20216;-72
2022/07/24 08:07:52;;;;;;;5.45;3.53;;;14.50;99.90;;;;;;5073373;28;20636;-73
2022/07/24 08:10:25;;;;;;;6.85;3.50;;;14.40;99.90;;;;;;5073512;28;20300;-72
2022/07/24 08:12:55;;;;;;;9.18;3.40;;;14.40;99.90;;;;;;5073430;28;20192;-72
2022/07/24 08:15:26;;;;;;;5.75;3.08;;;14.40;99.90;;;;;;5073375;28;20215;-72
2022/07/24 08:17:57;;;;;;;5.20;3.10;;;14.30;99.90;;;;;;5073514;28;20186;-72
2022/07/24 08:20:29;;;;;;;5.35;2.67;;;14.30;99.90;;;;;;5063376;28;20740;-72
2022/07/24 08:22:59;;;;;;;6.80;2.90;;;14.30;99.90;;;;;;5069657;28;20208;-72
2022/07/24 08:25:32;;;;;;;5.80;2.90;;;14.20;99.90;;;;;;5072909;28;20690;-71
2022/07/24 08:28:03;;;;;;;6.10;2.72;;;14.10;99.90;;;;;;5073269;28;20193;-72
2022/07/24 08:30:33;;;;;;;6.20;3.28;;;14.10;99.90;;;;;;5072479;28;20225;-72
2022/07/24 08:33:04;;;;;;;6.25;3.10;;;14.00;99.90;;;;;;5072544;28;20196;-73
2022/07/24 08:35:34;;;;;;;7.90;3.85;;;14.00;99.90;;;;;;5071920;28;20240;-72
2022/07/24 08:38:06;;;;;;;8.85;3.58;;;14.00;99.90;;;;;;5072989;28;20565;-76
2022/07/24 08:40:48;;;;;;;6.28;3.70;;;13.90;99.90;;;;;;5073333;28;20185;-74
2022/07/24 08:43:18;;;;;;;14.70;5.75;;;13.90;99.90;;;;;;5073287;28;20193;-74
2022/07/24 08:45:51;;;;;;;16.35;8.23;;;13.80;99.90;;;;;;5072673;28;20648;-76
2022/07/24 08:48:24;;;;;;;17.75;9.98;;;13.80;99.90;;;;;;5072827;28;20181;-73
2022/07/24 08:50:56;;;;;;;14.70;8.43;;;13.80;99.90;;;;;;5072956;28;20220;-73
2022/07/24 08:53:27;;;;;;;13.95;8.25;;;13.80;99.90;;;;;;5072767;28;20189;-76
2022/07/24 08:56:00;;;;;;;12.00;7.50;;;13.80;99.90;;;;;;5072974;28;20215;-73
2022/07/24 08:58:31;;;;;;;14.85;8.57;;;13.80;99.90;;;;;;5073001;28;20216;-72
2022/07/24 09:01:01;;;;;;;14.07;8.27;;;13.80;99.90;;;;;;5072833;28;20196;-73
2022/07/24 09:03:40;;;;;;;38.25;20.77;;;13.80;99.90;;;;;;5072691;28;20189;-73
2022/07/24 09:06:12;;;;;;;27.90;17.23;;;13.70;99.90;;;;;;5072689;28;20204;-72
2022/07/24 09:08:43;;;;;;;38.78;28.50;;;13.60;99.90;;;;;;5072837;28;20543;-74
2022/07/24 09:11:21;;;;;;;30.80;22.70;;;13.60;99.90;;;;;;5072775;28;20794;-73
2022/07/24 09:16:41;;;;;;;20.35;11.98;;;13.50;99.90;;;;;;5063767;28;20227;-71
2022/07/24 09:19:13;;;;;;;19.40;11.63;;;13.60;99.90;;;;;;5072492;28;20193;-72
2022/07/24 09:21:44;;;;;;;14.57;10.35;;;13.50;99.90;;;;;;5072371;28;20192;-72
2022/07/24 09:24:20;;;;;;;14.23;9.85;;;13.40;99.90;;;;;;5072657;28;20250;-72
2022/07/24 09:26:55;;;;;;;11.98;9.27;;;13.50;99.90;;;;;;5072595;28;20239;-72
2022/07/24 09:29:27;;;;;;;12.57;7.50;;;13.40;99.90;;;;;;5072303;28;20239;-72
2022/07/24 09:32:00;;;;;;;12.55;7.13;;;13.40;99.90;;;;;;5071597;28;20527;-73
2022/07/24 09:34:31;;;;;;;10.98;6.30;;;13.30;99.90;;;;;;5061323;28;20217;-72
2022/07/24 09:37:03;;;;;;;11.77;6.65;;;13.40;99.90;;;;;;5072188;28;20216;-72
2022/07/24 09:39:36;;;;;;;10.75;6.50;;;13.30;99.90;;;;;;5072203;28;20644;-73
2022/07/24 09:42:10;;;;;;;10.30;6.93;;;13.30;99.90;;;;;;5069197;28;20181;-72
2022/07/24 09:44:41;;;;;;;11.45;6.80;;;13.30;99.90;;;;;;5071074;28;20554;-73
2022/07/24 09:47:14;;;;;;;13.00;7.18;;;13.20;99.90;;;;;;5075245;28;20590;-71
2022/07/24 09:49:45;;;;;;;13.57;8.32;;;13.20;99.90;;;;;;5075335;28;20189;-74
2022/07/24 09:52:18;;;;;;;14.80;8.05;;;13.20;99.90;;;;;;5076386;28;20189;-73
2022/07/24 09:54:50;;;;;;;14.27;8.88;;;13.20;99.90;;;;;;5076447;28;20216;-75
2022/07/24 09:57:25;;;;;;;14.10;8.07;;;13.20;99.90;;;;;;5076176;28;20640;-74
2022/07/24 09:59:57;;;;;;;12.77;8.55;;;13.20;99.90;;;;;;5076107;28;20188;-73
2022/07/24 10:02:29;;;;;;;14.45;9.18;;;13.20;99.90;;;;;;5056326;28;20186;-72
2022/07/24 10:05:01;;;;;;;13.73;9.25;;;13.10;99.90;;;;;;5070838;28;20280;-73
2022/07/24 10:07:32;;;;;;;13.90;8.18;;;13.20;99.90;;;;;;5076111;28;20664;-72
2022/07/24 10:10:03;;;;;;;13.32;7.57;;;13.10;99.90;;;;;;5070142;28;20215;-72
2022/07/24 10:12:36;;;;;;;12.50;6.75;;;13.10;99.90;;;;;;5056059;28;20201;-75
2022/07/24 10:15:07;;;;;;;13.52;6.55;;;13.10;99.90;;;;;;5061900;28;20637;-72
2022/07/24 10:18:10;;;;;;;10.73;6.30;;;13.00;99.90;;;;;;5075354;28;20196;-72
2022/07/24 10:20:43;;;;;;;11.35;6.22;;;13.00;99.90;;;;;;5075550;28;20212;-72
2022/07/24 10:23:24;;;;;;;12.52;6.82;;;13.00;99.90;;;;;;5075991;28;20211;-72
2022/07/24 10:26:04;;;;;;;10.45;5.75;;;13.00;99.90;;;;;;5075854;28;20549;-72
2022/07/24 10:28:45;;;;;;;11.73;5.97;;;13.00;99.90;;;;;;5075278;28;20196;-72
2022/07/24 10:31:16;;;;;;;9.48;5.72;;;12.90;99.90;;;;;;5075755;28;20236;-73
2022/07/24 10:33:54;;;;;;;10.93;6.03;;;12.90;99.90;;;;;;5074942;28;20224;-75
2022/07/24 10:36:32;;;;;;;10.85;5.80;;;12.90;99.90;;;;;;5074921;28;20699;-73
2022/07/24 10:39:11;;;;;;;11.70;6.15;;;12.90;99.90;;;;;;5075920;28;20195;-72
2022/07/24 10:41:42;;;;;;;12.88;6.70;;;12.80;99.90;;;;;;5074837;28;20192;-72
2022/07/24 10:44:21;;;;;;;11.45;6.05;;;12.90;99.90;;;;;;5075568;28;20193;-72
2022/07/24 10:47:02;;;;;;;12.18;5.97;;;12.90;99.90;;;;;;5066554;28;20203;-74
2022/07/24 10:49:53;;;;;;;9.63;5.72;;;12.80;99.90;;;;;;5075362;28;20193;-72
2022/07/24 10:52:29;;;;;;;11.65;5.97;;;12.80;99.90;;;;;;5071632;28;20224;-73
2022/07/24 10:55:28;;;;;;;9.88;5.55;;;12.80;99.90;;;;;;5075101;28;20242;-73
2022/07/24 10:58:00;;;;;;;11.38;5.90;;;12.80;99.90;;;;;;5059165;28;20228;-74
2022/07/24 11:00:35;;;;;;;10.13;6.22;;;12.80;99.90;;;;;;5074937;28;20196;-73
2022/07/24 11:03:08;;;;;;;16.92;7.65;;;12.70;99.90;;;;;;5074706;28;20238;-73
2022/07/24 11:05:40;;;;;;;13.30;7.40;;;12.70;99.90;;;;;;5075092;28;20208;-73
2022/07/24 11:08:33;;;;;;;15.55;7.50;;;12.70;99.90;;;;;;5075044;28;20193;-72
2022/07/24 11:11:15;;;;;;;14.80;8.38;;;12.70;99.90;;;;;;5074581;28;20220;-72
2022/07/24 11:13:57;;;;;;;14.38;8.98;;;12.60;99.90;;;;;;5074854;28;20189;-72
2022/07/24 11:16:34;;;;;;;14.13;8.68;;;12.60;99.90;;;;;;5074721;28;20684;-73
2022/07/24 11:19:29;;;;;;;14.65;8.77;;;12.60;99.90;;;;;;5074367;28;20276;-72
2022/07/24 11:22:11;;;;;;;18.88;9.10;;;12.60;99.90;;;;;;5074615;28;20197;-75
2022/07/24 11:25:00;;;;;;;13.85;8.45;;;12.50;99.90;;;;;;5074644;28;20189;-73
2022/07/24 11:27:43;;;;;;;14.82;8.73;;;12.50;99.90;;;;;;5070410;28;20567;-73
2022/07/24 11:30:14;;;;;;;15.50;9.45;;;12.40;99.90;;;;;;5074120;28;20243;-72
2022/07/24 11:32:47;;;;;;;17.33;9.88;;;12.40;99.90;;;;;;5062639;28;20268;-72
2022/07/24 11:35:18;;;;;;;16.98;9.43;;;12.40;99.90;;;;;;5074246;28;20287;-72
2022/07/24 11:37:50;;;;;;;18.67;10.70;;;12.40;99.90;;;;;;5074538;28;20232;-72
2022/07/24 11:40:23;;;;;;;16.83;9.95;;;12.40;99.90;;;;;;5074095;28;20204;-73
2022/07/24 11:42:59;;;;;;;14.88;9.48;;;12.30;99.90;;;;;;5074160;28;20545;-72
2022/07/24 11:45:29;;;;;;;14.52;9.05;;;12.30;99.90;;;;;;5074194;28;20188;-72
2022/07/24 11:48:02;;;;;;;14.30;9.30;;;12.30;99.90;;;;;;5074345;28;20235;-72
2022/07/24 11:50:34;;;;;;;15.38;9.98;;;12.30;99.90;;;;;;5073733;28;20193;-72
2022/07/24 11:53:09;;;;;;;13.23;9.25;;;12.30;99.90;;;;;;5063644;28;20216;-72
2022/07/24 11:55:40;;;;;;;17.30;10.00;;;12.30;99.90;;;;;;5074265;28;20811;-72
2022/07/24 11:58:11;;;;;;;18.27;9.88;;;12.20;99.90;;;;;;5074181;28;20667;-73
2022/07/24 12:00:42;;;;;;;14.20;8.82;;;12.20;99.90;;;;;;5058392;28;20198;-73
2022/07/24 12:03:15;;;;;;;15.00;8.95;;;12.20;99.90;;;;;;5065983;28;20188;-72
2022/07/24 12:05:46;;;;;;;15.05;9.18;;;12.20;99.90;;;;;;5073660;28;20201;-73
2022/07/24 12:08:21;;;;;;;18.60;9.52;;;12.20;99.90;;;;;;5073612;28;20197;-73
2022/07/24 12:10:57;;;;;;;16.88;9.27;;;12.10;99.90;;;;;;5073024;28;20201;-73
2022/07/24 12:13:29;;;;;;;14.38;9.15;;;12.10;99.90;;;;;;5073741;28;20708;-72
2022/07/24 12:16:00;;;;;;;15.90;9.23;;;12.10;99.90;;;;;;5073705;28;20220;-72
2022/07/24 12:18:33;;;;;;;15.40;9.38;;;12.10;99.90;;;;;;5073217;28;20196;-72
2022/07/24 12:21:04;;;;;;;14.93;8.85;;;12.10;99.90;;;;;;5073760;28;20561;-72
2022/07/24 12:23:35;;;;;;;15.38;8.52;;;12.10;99.90;;;;;;5073180;28;20193;-73
2022/07/24 12:26:05;;;;;;;14.57;8.57;;;12.10;99.90;;;;;;5073686;28;20197;-77
2022/07/24 12:28:36;;;;;;;14.40;8.00;;;12.10;99.90;;;;;;5073196;28;20189;-78
2022/07/24 12:31:10;;;;;;;14.43;7.32;;;12.00;99.90;;;;;;5073420;28;20196;-78
2022/07/24 12:33:55;;;;;;;13.23;7.70;;;12.00;99.90;;;;;;5073143;28;20304;-77
2022/07/24 12:36:28;;;;;;;15.85;9.30;;;12.00;99.90;;;;;;5073249;28;20211;-78
2022/07/24 12:38:59;;;;;;;15.63;9.50;;;12.00;99.90;;;;;;5073284;28;20189;-78
2022/07/24 12:41:31;;;;;;;16.30;9.95;;;12.00;99.90;;;;;;5072794;28;20185;-78
2022/07/24 12:44:02;;;;;;;16.70;10.35;;;12.00;99.90;;;;;;5073323;28;20196;-78
2022/07/24 12:46:34;;;;;;;17.90;10.63;;;12.00;99.90;;;;;;5073158;28;20200;-76
2022/07/24 12:49:08;;;;;;;15.82;10.27;;;12.00;99.90;;;;;;5072998;28;20202;-77
2022/07/24 12:51:52;;;;;;;16.67;10.45;;;12.00;99.90;;;;;;5069339;28;20192;-74
2022/07/24 12:54:25;;;;;;;18.08;10.15;;;12.00;99.90;;;;;;5072997;28;20189;-78
2022/07/24 12:56:57;;;;;;;17.48;10.25;;;12.00;99.90;;;;;;5072942;28;20259;-77
2022/07/24 12:59:30;;;;;;;17.00;9.63;;;12.00;99.90;;;;;;5072902;28;20189;-72
2022/07/24 13:02:02;;;;;;;14.30;9.15;;;11.90;99.90;;;;;;5072988;28;20588;-75
2022/07/24 13:04:35;;;;;;;16.88;9.38;;;11.90;99.90;;;;;;5072949;28;20559;-75
2022/07/24 13:07:09;;;;;;;16.27;9.82;;;11.90;99.90;;;;;;5072444;28;20640;-75
2022/07/24 13:09:40;;;;;;;14.80;9.55;;;11.90;99.90;;;;;;5072880;28;20212;-77
2022/07/24 13:12:12;;;;;;;18.95;9.45;;;11.90;99.90;;;;;;5072856;28;20185;-77